Terminal Aerodrome Forecast
Issued by NWS

Home | Current Version | Previous Version | Text Only | Print | Product List | Glossary On
Versions: 1 2 3 4 5 6 7 8 9 10 11 12 13 14 15 16 17 18 19
000
FTUS46 KLOX 141100 RRA
TAFPRB
TAF
KPRB 141137Z 1412/1512 VRB03KT P6SM BKN150
     FM141900 22010KT P6SM BKN150
     FM142100 22015G25KT P6SM BKN150
     FM150400 22007KT P6SM BKN150=

USA.gov is the U.S. government's official web portal to all federal, state and local government web resources and services.